Terminal Aerodrome Forecast
Issued by NWS Brownsville, TX

Home | Current Version | Previous Version | Text Only | Print | Product List | Glossary On
Versions: 1 2 3 4 5 6 7 8 9 10 11 12 13 14 15 16 17 18 19 20 21 22 23 24 25
000
FTUS44 KBRO 221700
TAFBRO
TAF
KBRO 221730Z 2218/2318 07011KT P6SM VCSH SCT025 BKN040
      TEMPO 2218/2222 -SHRA BKN025
     FM230000 04006KT P6SM SCT025
     FM230500 01004KT P6SM FEW025
     FM231600 06008KT P6SM SCT025 BKN040=

USA.gov is the U.S. government's official web portal to all federal, state and local government web resources and services.